createdAt,value
2019-02-28T00:00:43.379Z,12.67
2019-02-28T00:03:50.632Z,13.73
2019-02-28T00:06:58.201Z,19.83
2019-02-28T00:10:05.928Z,13.63
2019-02-28T00:13:13.448Z,16.00
2019-02-28T00:16:21.351Z,14.50
2019-02-28T00:19:28.412Z,16.40
2019-02-28T00:22:35.633Z,17.17
2019-02-28T00:25:42.951Z,15.67
2019-02-28T00:28:50.092Z,11.43
2019-02-28T00:32:07.599Z,15.77
2019-02-28T00:35:14.804Z,13.60
2019-02-28T00:38:22.041Z,14.80
2019-02-28T00:41:42.968Z,17.43
2019-02-28T00:44:57.157Z,13.83
2019-02-28T00:48:04.457Z,19.23
2019-02-28T00:51:21.094Z,13.60
2019-02-28T00:54:28.400Z,15.70
2019-02-28T00:57:35.544Z,14.20
2019-02-28T01:00:52.325Z,14.53
2019-02-28T01:03:59.888Z,19.30
2019-02-28T01:07:17.005Z,14.53
2019-02-28T01:10:24.407Z,18.33
2019-02-28T01:13:31.553Z,12.13
2019-02-28T01:16:38.886Z,19.43
2019-02-28T01:19:46.123Z,20.40
2019-02-28T01:22:53.374Z,18.73
2019-02-28T01:26:00.608Z,18.40
2019-02-28T01:29:07.895Z,19.50
2019-02-28T01:32:16.310Z,22.47
2019-02-28T01:35:23.522Z,14.80
2019-02-28T01:38:30.809Z,20.23
2019-02-28T01:41:37.942Z,16.57
2019-02-28T01:44:45.266Z,20.90
2019-02-28T01:47:52.479Z,23.40
2019-02-28T01:51:00.822Z,17.13
2019-02-28T01:54:08.882Z,22.27
2019-02-28T01:57:16.028Z,18.17
2019-02-28T02:00:24.436Z,23.80
2019-02-28T02:03:31.705Z,27.43
2019-02-28T02:06:38.975Z,17.63
2019-02-28T02:09:56.511Z,21.17
2019-02-28T02:13:17.210Z,22.70
2019-02-28T02:16:27.714Z,25.67
2019-02-28T02:19:33.257Z,18.67
2019-02-28T02:22:50.110Z,21.07
2019-02-28T02:26:08.414Z,18.80
2019-02-28T02:29:25.055Z,21.47
2019-02-28T02:32:37.500Z,24.97
2019-02-28T02:35:50.676Z,36.07
2019-02-28T02:39:07.475Z,19.07
2019-02-28T02:42:14.632Z,20.53
2019-02-28T02:45:21.775Z,24.60
2019-02-28T02:48:42.314Z,21.67
2019-02-28T02:51:56.926Z,22.73
2019-02-28T02:55:14.246Z,22.00
2019-02-28T02:58:31.009Z,25.67
2019-02-28T03:01:47.217Z,29.23
2019-02-28T03:04:57.811Z,27.67
2019-02-28T03:08:03.197Z,27.47
2019-02-28T03:11:10.538Z,22.80
2019-02-28T03:14:17.849Z,24.20
2019-02-28T03:17:34.461Z,26.10
2019-02-28T03:20:42.491Z,27.00
2019-02-28T03:23:49.834Z,21.77
2019-02-28T03:26:56.988Z,28.23
2019-02-28T03:30:05.049Z,24.90
2019-02-28T03:33:27.322Z,21.80
2019-02-28T03:36:30.397Z,22.00
2019-02-28T03:39:37.947Z,19.50
2019-02-28T03:42:54.339Z,28.43
2019-02-28T03:46:01.484Z,28.00
2019-02-28T03:49:11.477Z,19.77
2019-02-28T03:52:27.172Z,26.37
2019-02-28T03:55:40.310Z,26.63
2019-02-28T03:58:52.813Z,23.67
2019-02-28T04:02:09.521Z,23.50
2019-02-28T04:05:28.075Z,22.37
2019-02-28T04:08:44.584Z,20.00
2019-02-28T04:11:51.829Z,25.53
2019-02-28T04:14:59.039Z,19.50
2019-02-28T04:18:07.721Z,29.10
2019-02-28T04:21:24.556Z,24.27
2019-02-28T04:24:31.743Z,24.53
2019-02-28T04:27:40.485Z,26.10
2019-02-28T04:30:57.417Z,26.17
2019-02-28T04:34:04.597Z,22.30
2019-02-28T04:37:11.758Z,23.20
2019-02-28T04:40:19.077Z,26.83
2019-02-28T04:43:35.815Z,25.80
2019-02-28T04:46:52.542Z,20.37
2019-02-28T04:50:09.335Z,33.17
2019-02-28T04:53:18.970Z,29.20
2019-02-28T04:56:23.721Z,24.47
2019-02-28T04:59:31.601Z,18.33
2019-02-28T05:02:39.833Z,22.33
2019-02-28T05:05:56.399Z,21.90
2019-02-28T05:09:05.376Z,18.53
2019-02-28T05:12:21.977Z,23.47
2019-02-28T05:15:29.115Z,29.57
2019-02-28T05:18:36.246Z,21.27
2019-02-28T05:21:43.656Z,18.93
2019-02-28T05:25:00.379Z,22.53
2019-02-28T05:28:07.896Z,27.70
2019-02-28T05:31:27.086Z,19.53
2019-02-28T05:34:33.430Z,24.17
2019-02-28T05:37:50.123Z,23.60
2019-02-28T05:41:06.710Z,21.13
2019-02-28T05:44:14.043Z,18.83
2019-02-28T05:47:21.164Z,15.90
2019-02-28T05:50:28.381Z,20.97
2019-02-28T05:53:45.161Z,23.73
2019-02-28T05:56:52.345Z,25.17
2019-02-28T06:00:01.794Z,17.93
2019-02-28T06:03:20.057Z,29.33
2019-02-28T06:06:36.651Z,24.00
2019-02-28T06:09:45.521Z,30.23
2019-02-28T06:12:52.656Z,37.03
2019-02-28T06:16:12.346Z,29.57
2019-02-28T06:19:27.706Z,22.80
2019-02-28T06:22:36.312Z,27.43
2019-02-28T06:25:43.578Z,30.73
2019-02-28T06:28:50.830Z,19.33
2019-02-28T06:31:58.208Z,25.50
2019-02-28T06:35:05.893Z,22.77
2019-02-28T06:38:13.199Z,19.60
2019-02-28T06:41:20.444Z,26.00
2019-02-28T06:44:27.832Z,22.87
2019-02-28T06:47:35.083Z,30.17
2019-02-28T06:50:44.682Z,31.57
2019-02-28T06:53:51.298Z,33.33
2019-02-28T06:56:58.542Z,31.40
2019-02-28T07:00:06.653Z,28.97
2019-02-28T07:03:22.881Z,30.00
2019-02-28T07:06:30.132Z,28.23
2019-02-28T07:09:38.258Z,30.13
2019-02-28T07:12:45.473Z,26.13
2019-02-28T07:15:55.571Z,24.47
2019-02-28T07:19:01.840Z,25.13
2019-02-28T07:22:09.053Z,28.40
2019-02-28T07:25:16.287Z,29.13
2019-02-28T07:28:23.650Z,27.73
2019-02-28T07:31:30.894Z,31.97
2019-02-28T07:34:38.088Z,41.67
2019-02-28T07:37:45.406Z,30.17
2019-02-28T07:41:02.127Z,28.93
2019-02-28T07:44:22.253Z,22.13
2019-02-28T07:47:27.744Z,25.53
2019-02-28T07:50:34.928Z,31.43
2019-02-28T07:53:42.348Z,23.67
2019-02-28T07:56:58.793Z,25.23
2019-02-28T08:00:08.905Z,28.20
2019-02-28T08:03:16.187Z,38.27
2019-02-28T08:06:23.418Z,27.97
2019-02-28T08:09:31.378Z,36.63
2019-02-28T08:12:38.748Z,33.93
2019-02-28T08:15:45.894Z,28.87
2019-02-28T08:18:53.559Z,36.40
2019-02-28T08:22:00.864Z,23.90
2019-02-28T08:25:09.302Z,34.33
2019-02-28T08:28:16.599Z,26.40
2019-02-28T08:31:23.850Z,21.77
2019-02-28T08:34:31.070Z,28.13
2019-02-28T08:37:38.322Z,35.10
2019-02-28T08:40:50.600Z,25.03
2019-02-28T08:44:04.543Z,27.70
2019-02-28T08:47:21.886Z,25.77
2019-02-28T08:50:29.085Z,18.03
2019-02-28T08:53:36.317Z,19.77
2019-02-28T08:56:49.100Z,33.83
2019-02-28T08:59:55.848Z,32.30
2019-02-28T09:03:01.573Z,27.10
2019-02-28T09:06:08.697Z,25.07
2019-02-28T09:09:16.088Z,36.33
2019-02-28T09:12:23.576Z,29.37
2019-02-28T09:15:31.360Z,20.37
2019-02-28T09:18:38.618Z,27.07
2019-02-28T09:21:46.053Z,22.87
2019-02-28T09:24:53.399Z,34.67
2019-02-28T09:28:00.549Z,23.20
2019-02-28T09:31:07.856Z,21.07
2019-02-28T09:34:13.948Z,20.67
2019-02-28T09:37:21.105Z,20.10
2019-02-28T09:40:29.670Z,26.67
2019-02-28T09:43:37.275Z,24.40
2019-02-28T09:46:54.021Z,23.40
2019-02-28T09:50:13.286Z,19.80
2019-02-28T09:53:20.501Z,19.37
2019-02-28T09:56:27.730Z,23.57
2019-02-28T09:59:37.826Z,23.20
2019-02-28T10:02:45.151Z,22.93
2019-02-28T10:05:52.525Z,19.23
2019-02-28T10:09:09.959Z,24.40
2019-02-28T10:12:17.112Z,25.37
2019-02-28T10:15:24.421Z,18.20
2019-02-28T10:18:41.049Z,20.03
2019-02-28T10:21:52.096Z,26.33
2019-02-28T10:25:07.180Z,22.10
2019-02-28T10:28:23.515Z,16.80
2019-02-28T10:31:36.174Z,28.20
2019-02-28T10:34:37.939Z,18.57
2019-02-28T10:37:58.415Z,19.07
2019-02-28T10:41:13.023Z,19.37
2019-02-28T10:44:20.263Z,14.40
2019-02-28T10:47:29.589Z,15.43
2019-02-28T10:50:45.862Z,20.47
2019-02-28T10:54:02.558Z,27.93
2019-02-28T10:57:09.872Z,26.97
2019-02-28T11:00:32.240Z,23.33
2019-02-28T11:03:38.146Z,11.50
2019-02-28T11:06:46.812Z,21.50
2019-02-28T11:09:55.557Z,10.57
2019-02-28T11:13:14.074Z,10.17
2019-02-28T11:16:23.569Z,12.97
2019-02-28T11:19:30.125Z,11.10
2019-02-28T11:22:39.959Z,20.60
2019-02-28T11:25:46.189Z,12.77
2019-02-28T11:28:53.653Z,17.27
2019-02-28T11:32:00.291Z,12.17
2019-02-28T11:35:08.050Z,14.10
2019-02-28T11:38:20.506Z,17.00
2019-02-28T11:41:33.677Z,7.67
2019-02-28T11:44:43.481Z,7.17
2019-02-28T11:48:00.499Z,17.17
2019-02-28T11:51:07.638Z,12.90
2019-02-28T11:54:14.856Z,16.27
2019-02-28T11:57:22.014Z,10.53
2019-02-28T12:00:32.500Z,10.90
2019-02-28T12:03:39.222Z,12.10
2019-02-28T12:06:46.454Z,9.73
2019-02-28T12:09:54.712Z,11.70
2019-02-28T12:13:02.628Z,9.63
2019-02-28T12:16:10.031Z,9.80
2019-02-28T12:19:17.340Z,14.33
2019-02-28T12:22:24.658Z,20.93
2019-02-28T12:25:31.888Z,6.40
2019-02-28T12:28:39.248Z,9.67
2019-02-28T12:31:46.401Z,13.43
2019-02-28T12:34:52.487Z,12.87
2019-02-28T12:38:08.899Z,8.57
2019-02-28T12:41:26.284Z,11.97
2019-02-28T12:44:33.668Z,19.60
2019-02-28T12:47:41.606Z,10.50
2019-02-28T12:50:49.513Z,4.83
2019-02-28T12:53:59.222Z,14.63
2019-02-28T12:57:06.171Z,8.73
2019-02-28T13:00:16.052Z,10.40
2019-02-28T13:03:23.205Z,13.90
2019-02-28T13:06:30.336Z,10.87
2019-02-28T13:09:37.730Z,10.03
2019-02-28T13:12:48.916Z,8.03
2019-02-28T13:15:54.460Z,22.63
2019-02-28T13:19:11.169Z,8.43
2019-02-28T13:22:18.896Z,9.80
2019-02-28T13:25:36.795Z,9.77
2019-02-28T13:28:43.998Z,7.90
2019-02-28T13:32:01.411Z,11.60
2019-02-28T13:35:11.887Z,12.53
2019-02-28T13:38:19.939Z,11.60
2019-02-28T13:41:27.469Z,8.70
2019-02-28T13:44:36.382Z,19.50
2019-02-28T13:47:46.309Z,8.60
2019-02-28T13:50:53.663Z,8.50
2019-02-28T13:54:10.706Z,14.80
2019-02-28T13:57:27.286Z,12.83
2019-02-28T14:00:34.536Z,11.20
2019-02-28T14:03:46.019Z,9.00
2019-02-28T14:06:52.515Z,11.20
2019-02-28T14:10:00.329Z,3.73
2019-02-28T14:13:07.821Z,6.53
2019-02-28T14:16:15.105Z,8.83
2019-02-28T14:19:22.308Z,10.53
2019-02-28T14:22:29.447Z,3.93
2019-02-28T14:25:39.836Z,3.57
2019-02-28T14:28:45.612Z,7.83
2019-02-28T14:31:52.804Z,9.47
2019-02-28T14:35:00.816Z,11.07
2019-02-28T14:38:08.335Z,6.57
2019-02-28T14:41:15.571Z,5.27
2019-02-28T14:44:21.725Z,13.77
2019-02-28T14:47:29.544Z,24.07
2019-02-28T14:50:36.771Z,7.83
2019-02-28T14:53:45.403Z,12.53
2019-02-28T14:56:52.982Z,8.20
2019-02-28T15:00:06.104Z,9.90
2019-02-28T15:03:09.511Z,16.10
2019-02-28T15:06:16.653Z,13.73
2019-02-28T15:09:24.235Z,6.90
2019-02-28T15:12:33.004Z,6.83
2019-02-28T15:15:40.149Z,11.03
2019-02-28T15:18:51.033Z,6.03
2019-02-28T15:22:05.818Z,15.37
2019-02-28T15:25:22.577Z,3.30
2019-02-28T15:28:29.700Z,7.27
2019-02-28T15:31:36.910Z,6.77
2019-02-28T15:34:44.137Z,8.23
2019-02-28T15:38:00.889Z,5.10
2019-02-28T15:41:18.570Z,5.67
2019-02-28T15:44:29.315Z,8.70
2019-02-28T15:47:35.279Z,9.20
2019-02-28T15:50:42.585Z,12.00
2019-02-28T15:53:59.429Z,8.10
2019-02-28T15:57:16.269Z,5.03
2019-02-28T16:00:33.243Z,11.70
2019-02-28T16:03:51.289Z,4.47
2019-02-28T16:07:08.160Z,4.63
2019-02-28T16:10:20.124Z,9.20
2019-02-28T16:13:27.255Z,4.60
2019-02-28T16:16:34.659Z,6.30
2019-02-28T16:19:53.201Z,5.53
2019-02-28T16:23:09.785Z,3.20
2019-02-28T16:26:27.765Z,3.87
2019-02-28T16:29:34.995Z,2.27
2019-02-28T16:32:42.255Z,5.30
2019-02-28T16:35:50.261Z,8.93
2019-02-28T16:38:58.454Z,4.73
2019-02-28T16:42:08.276Z,5.47
2019-02-28T16:45:32.484Z,3.70
2019-02-28T16:48:52.718Z,5.83
2019-02-28T16:52:09.517Z,5.20
2019-02-28T16:55:27.432Z,5.83
2019-02-28T16:58:34.951Z,4.87
2019-02-28T17:01:42.651Z,7.23
2019-02-28T17:04:51.954Z,3.40
2019-02-28T17:07:58.871Z,7.53
2019-02-28T17:11:06.079Z,2.37
2019-02-28T17:14:16.664Z,5.27
2019-02-28T17:17:43.557Z,9.90
2019-02-28T17:20:52.193Z,6.13
2019-02-28T17:23:59.514Z,1.87
2019-02-28T17:27:24.984Z,7.30
2019-02-28T17:31:23.298Z,5.77
2019-02-28T17:34:30.631Z,5.97
2019-02-28T17:37:37.761Z,5.27
2019-02-28T17:40:44.931Z,3.07
2019-02-28T17:44:39.638Z,10.63
2019-02-28T17:48:36.489Z,2.30
2019-02-28T17:52:01.931Z,3.23
2019-02-28T17:55:52.708Z,4.17
2019-02-28T17:59:39.053Z,3.27
2019-02-28T18:03:17.823Z,4.33
2019-02-28T18:06:37.132Z,2.77
2019-02-28T18:10:02.157Z,1.47
2019-02-28T18:13:55.045Z,1.70
2019-02-28T18:17:38.053Z,4.40
2019-02-28T18:21:22.641Z,2.87
2019-02-28T18:25:00.242Z,7.23
2019-02-28T18:28:41.680Z,5.40
2019-02-28T18:31:48.935Z,1.67
2019-02-28T18:34:56.351Z,2.47
2019-02-28T18:38:04.304Z,3.90
2019-02-28T18:41:21.058Z,5.93
2019-02-28T18:44:28.286Z,3.93
2019-02-28T18:47:45.030Z,13.00
2019-02-28T18:51:01.778Z,6.17
2019-02-28T18:54:09.065Z,6.27
2019-02-28T18:57:16.315Z,6.97
2019-02-28T19:00:33.182Z,5.47
2019-02-28T19:03:49.999Z,4.97
2019-02-28T19:07:06.729Z,3.87
2019-02-28T19:10:23.643Z,2.47
2019-02-28T19:13:40.483Z,3.53
2019-02-28T19:16:57.068Z,3.00
2019-02-28T19:20:14.187Z,2.30
2019-02-28T19:23:21.802Z,4.93
2019-02-28T19:26:29.224Z,3.53
2019-02-28T19:29:37.011Z,5.47
2019-02-28T19:32:53.663Z,3.77
2019-02-28T19:36:10.430Z,8.30
2019-02-28T19:39:27.174Z,4.07
2019-02-28T19:42:44.017Z,5.17
2019-02-28T19:45:50.664Z,3.93
2019-02-28T19:48:57.860Z,6.30
2019-02-28T19:52:05.268Z,4.07
2019-02-28T19:55:12.984Z,4.23
2019-02-28T19:58:29.549Z,2.07
2019-02-28T20:01:46.413Z,7.10
2019-02-28T20:04:53.628Z,3.00
2019-02-28T20:08:00.916Z,4.20
2019-02-28T20:11:17.517Z,4.60
2019-02-28T20:14:24.800Z,3.07
2019-02-28T20:17:41.584Z,16.37
2019-02-28T20:20:58.333Z,2.50
2019-02-28T20:24:06.665Z,13.00
2019-02-28T20:27:14.076Z,2.80
2019-02-28T20:30:22.503Z,9.83
2019-02-28T20:33:30.123Z,4.83
2019-02-28T20:36:37.339Z,27.33
2019-02-28T20:39:44.644Z,2.60
2019-02-28T20:42:51.846Z,3.13
2019-02-28T20:45:59.070Z,2.20
2019-02-28T20:49:06.371Z,1.47
2019-02-28T20:52:13.876Z,5.23
2019-02-28T20:55:30.369Z,4.07
2019-02-28T20:58:47.064Z,1.83
2019-02-28T21:01:54.272Z,7.03
2019-02-28T21:05:02.588Z,2.07
2019-02-28T21:08:10.001Z,5.10
2019-02-28T21:11:17.264Z,3.47
2019-02-28T21:14:24.745Z,6.13
2019-02-28T21:17:31.942Z,4.47
2019-02-28T21:20:39.260Z,2.77
2019-02-28T21:23:55.825Z,6.10
2019-02-28T21:27:03.065Z,3.37
2019-02-28T21:30:13.572Z,3.10
2019-02-28T21:33:20.777Z,1.63
2019-02-28T21:36:28.059Z,2.37
2019-02-28T21:39:44.803Z,2.97
2019-02-28T21:42:52.012Z,3.33
2019-02-28T21:46:08.751Z,3.47
2019-02-28T21:49:16.046Z,0.97
2019-02-28T21:52:23.339Z,1.90
2019-02-28T21:55:40.029Z,2.97
2019-02-28T21:58:56.774Z,5.03
2019-02-28T22:02:04.077Z,3.53
2019-02-28T22:05:26.813Z,4.57
2019-02-28T22:08:34.007Z,8.27
2019-02-28T22:11:41.128Z,6.07
2019-02-28T22:14:48.379Z,3.83
2019-02-28T22:18:05.130Z,2.37
2019-02-28T22:21:12.290Z,2.17
2019-02-28T22:24:29.034Z,2.53
2019-02-28T22:27:36.344Z,2.13
2019-02-28T22:31:02.539Z,2.77
2019-02-28T22:34:23.080Z,5.33
2019-02-28T22:37:44.214Z,4.87
2019-02-28T22:40:51.458Z,4.90
2019-02-28T22:43:58.634Z,5.90
2019-02-28T22:47:05.986Z,4.50
2019-02-28T22:50:13.145Z,4.30
2019-02-28T22:53:20.282Z,6.23
2019-02-28T22:56:29.230Z,3.27
2019-02-28T22:59:36.283Z,2.37
2019-02-28T23:02:53.158Z,1.93
2019-02-28T23:06:09.956Z,11.30
2019-02-28T23:09:17.087Z,8.77
2019-02-28T23:12:24.388Z,10.80
2019-02-28T23:15:41.047Z,5.67
2019-02-28T23:18:48.195Z,3.30
2019-02-28T23:21:55.520Z,5.40
2019-02-28T23:25:02.687Z,3.80
2019-02-28T23:28:15.353Z,5.43
2019-02-28T23:31:56.415Z,3.73
2019-02-28T23:35:03.981Z,3.13
2019-02-28T23:38:11.126Z,7.67
2019-02-28T23:41:18.474Z,3.40
2019-02-28T23:44:25.609Z,6.80
2019-02-28T23:47:32.761Z,4.37
2019-02-28T23:50:39.984Z,2.37
2019-02-28T23:53:47.650Z,5.60
2019-02-28T23:57:04.293Z,2.77
